Terminal Aerodrome Forecast
Issued by NWS Charleston, SC

Home | Current Version | Previous Version | Text Only | Print | Product List | Glossary On
Versions: 1 2 3 4 5 6 7 8 9 10 11 12 13 14 15 16 17 18 19 20 21
000
FTUS42 KCHS 222300
TAFSAV
TAF
KSAV 222322Z 2300/2324 03004KT 5SM -DZ BR OVC003
     FM230400 03004KT 2SM -RA BR OVC003
     FM230700 VRB02KT 3/4SM -DZ BR VV002
     FM231530 12004KT 3SM BR OVC004
     FM231800 13005KT 5SM -SHRA BR OVC010=

USA.gov is the U.S. government's official web portal to all federal, state and local government web resources and services.